^^
B2 Weather Station Historical Data
Daily Summary for July 4, 2019 Units:  English    Metric   Both
Daily Weekly Monthly Yearly Custom
  High: Low: Average:
Temperature: 90.5 °F 70.6 °F 78.6 °F
Dew Point: 78.8 °F 68.8 °F 72.9 °F
Humidity: 95% 65% 84%
Wind Speed: 11.5mph 0mph 3.6mph
Wind Gust: 6.5mph - -
Wind- - SSW
Pressure: 29.96 in 29.87 in -
Precipitation: 0.03 in    
Historical Graphs
 
 
Tabular Data for July 4, 2019
Time Temperature Dew Point Pressure Wind Wind Speed Wind Gust Humidity Rainfall Rate (Hourly) solar
00:04 76.5 °F 71.3 °F 29.89 in WSW 3.5 mph 1.9 mph 84% 0 in 0.00 W/m2
00:09 76.4 °F 71.2 °F 29.89 in SSW 4.6 mph 0.9 mph 84% 0 in 0.00 W/m2
00:14 76.2 °F 71 °F 29.89 in SW 2.3 mph 0.3 mph 84% 0 in 0.00 W/m2
00:19 76 °F 71.2 °F 29.89 in SW 2.3 mph 0.8 mph 85% 0 in 0.00 W/m2
00:24 75.8 °F 71 °F 29.89 in WSW 4 mph 1 mph 85% 0 in 0.00 W/m2
00:29 75.8 °F 71 °F 29.89 in WSW 5.8 mph 2.6 mph 85% 0 in 0.00 W/m2
00:34 75.7 °F 70.9 °F 29.88 in WSW 4.6 mph 2.7 mph 85% 0 in 0.00 W/m2
00:39 75.7 °F 70.9 °F 29.88 in Calm     85% 0 in 0.00 W/m2
00:44 75.7 °F 70.9 °F 29.88 in WSW 2.3 mph   85% 0 in 0.00 W/m2
00:49 75.5 °F 70.7 °F 29.88 in Calm     85% 0 in 0.00 W/m2
00:54 75.5 °F 70.7 °F 29.88 in WSW 2.3 mph 0.8 mph 85% 0 in 0.00 W/m2
00:59 75.3 °F 70.5 °F 29.88 in WSW 1.2 mph   85% 0 in 0.00 W/m2
01:04 75.3 °F 70.8 °F 29.88 in Calm     86% 0 in 0.00 W/m2
01:09 75.2 °F 70.7 °F 29.88 in Calm     86% 0 in 0.00 W/m2
01:14 75.1 °F 70.6 °F 29.88 in WSW 2.3 mph 0.2 mph 86% 0 in 0.00 W/m2
01:19 75 °F 70.5 °F 29.88 in Calm     86% 0 in 0.00 W/m2
01:24 74.9 °F 70.8 °F 29.87 in Calm     87% 0 in 0.00 W/m2
01:29 74.8 °F 70.7 °F 29.87 in Calm     87% 0 in 0.00 W/m2
01:34 74.6 °F 70.1 °F 29.87 in Calm     86% 0 in 0.00 W/m2
01:39 74.1 °F 70.3 °F 29.87 in Calm     88% 0 in 0.00 W/m2
01:44 73.6 °F 69.8 °F 29.87 in Calm     88% 0 in 0.00 W/m2
01:49 73.2 °F 69.8 °F 29.87 in Calm   0.1 mph 89% 0 in 0.00 W/m2
01:54 72.7 °F 69.6 °F 29.87 in Calm     90% 0 in 0.00 W/m2
01:59 72.3 °F 69.2 °F 29.87 in Calm     90% 0 in 0.00 W/m2
02:04 72 °F 69.2 °F 29.87 in Calm     91% 0 in 0.00 W/m2
02:09 71.7 °F 68.9 °F 29.87 in SSE 2.3 mph 1.3 mph 91% 0 in 0.00 W/m2
02:14 71.3 °F 68.9 °F 29.87 in SSE 1.2 mph   92% 0 in 0.00 W/m2
02:19 71.3 °F 69.2 °F 29.87 in SSE 1.2 mph   93% 0 in 0.00 W/m2
02:24 71.3 °F 69.2 °F 29.87 in Calm     93% 0 in 0.00 W/m2
02:29 71.3 °F 69.2 °F 29.87 in Calm     93% 0 in 0.00 W/m2
02:34 71.3 °F 69.5 °F 29.87 in Calm     94% 0 in 0.00 W/m2
02:39 71.4 °F 69.6 °F 29.87 in Calm     94% 0 in 0.00 W/m2
02:44 71.3 °F 69.5 °F 29.87 in Calm     94% 0 in 0.00 W/m2
02:49 71.2 °F 69.4 °F 29.88 in Calm     94% 0 in 0.00 W/m2
02:54 71 °F 69.2 °F 29.87 in Calm     94% 0 in 0.00 W/m2
02:59 70.7 °F 68.9 °F 29.87 in Calm     94% 0 in 0.00 W/m2
03:04 70.6 °F 68.8 °F 29.87 in Calm     94% 0 in 0.00 W/m2
03:09 70.7 °F 68.9 °F 29.87 in Calm     94% 0 in 0.00 W/m2
03:14 70.8 °F 69.3 °F 29.88 in Calm     95% 0 in 0.00 W/m2
03:19 70.9 °F 69.4 °F 29.87 in SSE 2 mph 0.9 mph 95% 0 in 0.00 W/m2
03:24 71 °F 69.5 °F 29.87 in SSE 1.2 mph 0.6 mph 95% 0 in 0.00 W/m2
03:29 71.3 °F 69.8 °F 29.87 in SSE 2.3 mph 2.1 mph 95% 0 in 0.00 W/m2
03:34 71.4 °F 69.9 °F 29.87 in SSE 2.3 mph 0.6 mph 95% 0 in 0.00 W/m2
03:39 71.4 °F 69.9 °F 29.87 in Calm     95% 0 in 0.00 W/m2
03:44 71.3 °F 69.8 °F 29.88 in South 2 mph 1.1 mph 95% 0 in 0.00 W/m2
03:49 71.4 °F 69.9 °F 29.89 in South 1.2 mph 0.2 mph 95% 0 in 0.00 W/m2
03:54 71.4 °F 69.9 °F 29.89 in South 1 mph 0.7 mph 95% 0 in 0.00 W/m2
03:59 71.4 °F 69.9 °F 29.89 in SSW 3.5 mph 0.7 mph 95% 0 in 0.00 W/m2
04:04 71.4 °F 69.9 °F 29.89 in South 2.3 mph 1.3 mph 95% 0 in 0.00 W/m2
04:09 71.5 °F 70 °F 29.89 in South 5 mph 3 mph 95% 0 in 0.00 W/m2
04:14 71.6 °F 70.1 °F 29.89 in South 3.5 mph 1.7 mph 95% 0 in 0.00 W/m2
04:19 71.6 °F 70.1 °F 29.89 in South 4.6 mph 3.1 mph 95% 0 in 0.00 W/m2
04:24 71.7 °F 70.2 °F 29.90 in South 3.5 mph 2.4 mph 95% 0 in 0.00 W/m2
04:29 71.6 °F 70.1 °F 29.90 in SSW 2.3 mph 1.3 mph 95% 0 in 0.00 W/m2
04:34 71.6 °F 70.1 °F 29.90 in SSW 2.3 mph 0.6 mph 95% 0 in 0.00 W/m2
04:39 71.5 °F 70 °F 29.90 in SSW 3.5 mph 0.5 mph 95% 0 in 0.00 W/m2
04:44 71.5 °F 70 °F 29.91 in SSW 3 mph 1.8 mph 95% 0 in 0.00 W/m2
04:49 71.5 °F 70 °F 29.91 in SSW 3.5 mph 0.1 mph 95% 0 in 0.00 W/m2
04:54 71.5 °F 70 °F 29.91 in Calm     95% 0 in 0.00 W/m2
04:59 71.5 °F 70 °F 29.91 in SW 4.6 mph 1.4 mph 95% 0 in 0.00 W/m2
05:04 71.6 °F 70.1 °F 29.91 in South 1.2 mph   95% 0 in 0.00 W/m2
05:09 71.6 °F 69.8 °F 29.91 in South 4.6 mph 4.2 mph 94% 0 in 0.00 W/m2
05:14 71.5 °F 69.7 °F 29.91 in SSW 1.2 mph 0.2 mph 94% 0 in 0.00 W/m2
05:19 71.5 °F 69.7 °F 29.91 in SW 3.5 mph 0.4 mph 94% 0 in 0.00 W/m2
05:24 71.4 °F 69.6 °F 29.92 in SW 2.3 mph 2.6 mph 94% 0 in 0.00 W/m2
05:29 71.4 °F 69.6 °F 29.92 in SSW 2 mph 2.1 mph 94% 0 in 0.00 W/m2
05:34 71.4 °F 69.6 °F 29.92 in SSW 1.2 mph 0.1 mph 94% 0 in 5.00 W/m2
05:39 71.4 °F 69.6 °F 29.92 in SSW 3 mph 1.5 mph 94% 0 in 7.00 W/m2
05:44 71.4 °F 69.6 °F 29.92 in South 4.6 mph 0.7 mph 94% 0 in 11.00 W/m2
05:49 71.4 °F 69.6 °F 29.92 in SSW 2.3 mph 0.3 mph 94% 0 in 12.00 W/m2
05:54 71.3 °F 69.5 °F 29.92 in Calm     94% 0 in 14.00 W/m2
05:59 71.3 °F 69.5 °F 29.93 in Calm     94% 0 in 16.00 W/m2
06:04 71.3 °F 69.5 °F 29.93 in Calm     94% 0 in 18.00 W/m2
06:09 71.4 °F 69.6 °F 29.93 in SSW 4.6 mph 1.1 mph 94% 0 in 23.00 W/m2
06:14 71.5 °F 69.7 °F 29.93 in WSW 3.5 mph 1.2 mph 94% 0 in 35.00 W/m2
06:19 71.7 °F 69.9 °F 29.93 in SW 3.5 mph 2.6 mph 94% 0 in 53.00 W/m2
06:24 71.9 °F 70.1 °F 29.93 in WSW 3.5 mph 2.1 mph 94% 0 in 62.00 W/m2
06:29 72 °F 70.2 °F 29.93 in WSW 5.8 mph 1.7 mph 94% 0 in 76.00 W/m2
06:34 72.2 °F 70.4 °F 29.93 in SSW 4.6 mph 0.3 mph 94% 0 in 88.00 W/m2
06:39 72.4 °F 70.6 °F 29.93 in SW 1.2 mph 0.4 mph 94% 0 in 102.00 W/m2
06:44 72.6 °F 70.5 °F 29.93 in SSW 1.2 mph 0.4 mph 93% 0 in 118.00 W/m2
06:49 72.8 °F 70.7 °F 29.94 in SW 6.9 mph 0.6 mph 93% 0 in 125.00 W/m2
06:54 72.9 °F 70.8 °F 29.93 in SW 2.3 mph   93% 0 in 149.00 W/m2
06:59 73.3 °F 71.2 °F 29.93 in SW 2 mph 0.7 mph 93% 0 in 172.00 W/m2
07:04 73.5 °F 71 °F 29.93 in WSW 6.9 mph 0.7 mph 92% 0 in 186.00 W/m2
07:09 73.7 °F 71.2 °F 29.93 in SW 4.6 mph 0.7 mph 92% 0 in 186.00 W/m2
07:14 74 °F 71.2 °F 29.94 in WSW 1 mph 0.4 mph 91% 0 in 230.00 W/m2
07:19 74.3 °F 71.5 °F 29.93 in SSW 2.3 mph 0.3 mph 91% 0 in 255.00 W/m2
07:24 74.7 °F 71.9 °F 29.94 in WSW 2.3 mph 0.8 mph 91% 0 in 285.00 W/m2
07:29 75.1 °F 72 °F 29.94 in SW 3.5 mph   90% 0 in 299.00 W/m2
07:34 75.5 °F 72 °F 29.94 in SW 1.2 mph 0.2 mph 89% 0 in 185.00 W/m2
07:39 75.9 °F 72.4 °F 29.94 in SW 3.5 mph   89% 0 in 297.00 W/m2
07:44 76.2 °F 72.4 °F 29.94 in Calm     88% 0 in 162.00 W/m2
07:49 76.4 °F 72.6 °F 29.94 in Calm     88% 0 in 176.00 W/m2
07:54 76.7 °F 72.9 °F 29.94 in Calm     88% 0 in 195.00 W/m2
07:59 76.9 °F 73.1 °F 29.94 in South 1.2 mph   88% 0 in 274.00 W/m2
08:04 77.3 °F 73.5 °F 29.94 in Calm   0.1 mph 88% 0 in 473.00 W/m2
08:09 77.8 °F 73.6 °F 29.94 in SSW 4.6 mph 2 mph 87% 0 in 264.00 W/m2
08:14 77.9 °F 73.4 °F 29.94 in Calm     86% 0 in 223.00 W/m2
08:19 78 °F 73.1 °F 29.95 in SSW 3 mph 1.1 mph 85% 0 in 206.00 W/m2
08:24 77.9 °F 72.7 °F 29.95 in SSW 3.5 mph 1.3 mph 84% 0 in 190.00 W/m2
08:29 77.9 °F 72.7 °F 29.95 in SSW 3.5 mph 0.1 mph 84% 0 in 202.00 W/m2
08:34 77.8 °F 72.2 °F 29.95 in Calm     83% 0 in 207.00 W/m2
08:39 77.9 °F 72.3 °F 29.95 in South 3.5 mph 0.9 mph 83% 0 in 239.00 W/m2
08:44 77.8 °F 72.2 °F 29.95 in Calm     83% 0 in 272.00 W/m2
08:49 77.9 °F 72.3 °F 29.95 in SSW 5.8 mph 0.1 mph 83% 0 in 308.00 W/m2
08:54 78.1 °F 72.5 °F 29.94 in SW 9.2 mph 2.7 mph 83% 0 in 323.00 W/m2
08:59 78.6 °F 73.4 °F 29.94 in SW 3.5 mph 0.2 mph 84% 0 in 450.00 W/m2
09:04 79.3 °F 73.7 °F 29.94 in Calm     83% 0 in 348.00 W/m2
09:09 80 °F 74.4 °F 29.94 in SSW 5.8 mph 0.1 mph 83% 0 in 473.00 W/m2
09:14 80.3 °F 73.9 °F 29.94 in SW 4.6 mph 1 mph 81% 0 in 292.00 W/m2
09:19 80.4 °F 73.7 °F 29.94 in SW 1.2 mph 1.3 mph 80% 0 in 306.00 W/m2
09:24 80.5 °F 73.8 °F 29.94 in South 6.9 mph 4.1 mph 80% 0 in 406.00 W/m2
09:29 80.6 °F 73.9 °F 29.94 in SSW 3.5 mph   80% 0 in 582.00 W/m2
09:34 80.9 °F 74.1 °F 29.94 in South 5.8 mph 0.8 mph 80% 0 in 577.00 W/m2
09:39 81 °F 74.2 °F 29.94 in South 9.2 mph 2.9 mph 80% 0 in 564.00 W/m2
09:44 81.2 °F 74.1 °F 29.94 in SW 6.9 mph 0.8 mph 79% 0 in 554.00 W/m2
09:49 81.4 °F 74.3 °F 29.94 in South 2.3 mph   79% 0 in 541.00 W/m2
09:54 81.6 °F 74.5 °F 29.94 in South 4 mph 2.9 mph 79% 0 in 541.00 W/m2
09:59 81.9 °F 74.4 °F 29.94 in South 3.5 mph   78% 0 in 536.00 W/m2
10:04 82.3 °F 74.7 °F 29.94 in Calm   1.2 mph 78% 0 in 543.00 W/m2
10:09 82.4 °F 74.1 °F 29.94 in SSW 5.8 mph 1.4 mph 76% 0 in 555.00 W/m2
10:14 82.5 °F 75.3 °F 29.94 in South 6.9 mph 0.6 mph 79% 0 in 573.00 W/m2
10:19 82.5 °F 74.2 °F 29.94 in SSW 5.8 mph 3.1 mph 76% 0 in 599.00 W/m2
10:24 82.6 °F 74.7 °F 29.94 in South 5.8 mph 2 mph 77% 0 in 636.00 W/m2
10:29 83.1 °F 75.5 °F 29.95 in SSE 6 mph 3.7 mph 78% 0 in 675.00 W/m2
10:34 83.1 °F 74.4 °F 29.95 in SW 8.1 mph 2.8 mph 75% 0 in 714.00 W/m2
10:39 83.3 °F 75.3 °F 29.95 in South 6.9 mph 2.6 mph 77% 0 in 742.00 W/m2
10:44 83.6 °F 74.4 °F 29.95 in SSW 8.1 mph 3.3 mph 74% 0 in 765.00 W/m2
10:49 83.7 °F 75.3 °F 29.95 in SSE 6.9 mph 0.7 mph 76% 0 in 775.00 W/m2
10:54 83.9 °F 74.7 °F 29.95 in Calm     74% 0 in 784.00 W/m2
10:59 84.1 °F 75.3 °F 29.95 in SSW 6.9 mph 3.7 mph 75% 0 in 791.00 W/m2
11:04 84.2 °F 75 °F 29.95 in SSE 8 mph 1 mph 74% 0 in 795.00 W/m2
11:09 84.6 °F 75.8 °F 29.95 in Calm   1.3 mph 75% 0 in 803.00 W/m2
11:14 84.7 °F 74.7 °F 29.95 in South 8.1 mph 2.2 mph 72% 0 in 812.00 W/m2
11:19 84.8 °F 74.8 °F 29.94 in SSE 4.6 mph 0.4 mph 72% 0 in 817.00 W/m2
11:24 85 °F 74.1 °F 29.95 in SSW 3.5 mph   70% 0 in 824.00 W/m2
11:29 85.1 °F 75.1 °F 29.95 in SSW 3.5 mph 2.3 mph 72% 0 in 826.00 W/m2
11:34 85.2 °F 74.7 °F 29.94 in South 6 mph 3.7 mph 71% 0 in 837.00 W/m2
11:39 85.4 °F 75.3 °F 29.95 in SSE 9.2 mph 5.3 mph 72% 0 in 846.00 W/m2
11:44 85.4 °F 75.8 °F 29.95 in SSW 4.6 mph 1.2 mph 73% 0 in 849.00 W/m2
11:49 85.5 °F 75 °F 29.95 in SSW 8 mph 4 mph 71% 0 in 863.00 W/m2
11:54 85.7 °F 76.5 °F 29.95 in SSE 3.5 mph 2.8 mph 74% 0 in 874.00 W/m2
11:59 86 °F 75.9 °F 29.95 in North 6.9 mph 3.2 mph 72% 0 in 817.00 W/m2
12:04 85.7 °F 76 °F 29.95 in SSE 8.1 mph 2.4 mph 73% 0 in 882.00 W/m2
12:09 86.1 °F 76.4 °F 29.95 in SSE 6.9 mph 1.3 mph 73% 0 in 930.00 W/m2
12:14 86.2 °F 77.3 °F 29.94 in SSW 5.8 mph 4.2 mph 75% 0 in 870.00 W/m2
12:19 86.2 °F 76.9 °F 29.94 in SSE 8.1 mph 4 mph 74% 0 in 877.00 W/m2
12:24 86.3 °F 77 °F 29.94 in SSE 8.1 mph 4.3 mph 74% 0 in 882.00 W/m2
12:29 86.4 °F 77.1 °F 29.94 in SSE 9.2 mph 3.1 mph 74% 0 in 888.00 W/m2
12:34 86.5 °F 77.2 °F 29.94 in South 4 mph 2.7 mph 74% 0 in 895.00 W/m2
12:39 86.5 °F 76.8 °F 29.93 in SSW 4.6 mph 1.3 mph 73% 0 in 888.00 W/m2
12:44 86.9 °F 77.6 °F 29.93 in SSE 4.6 mph 3.2 mph 74% 0 in 896.00 W/m2
12:49 87 °F 77.3 °F 29.94 in SSE 8.1 mph 4.2 mph 73% 0 in 898.00 W/m2
12:54 87 °F 76.9 °F 29.93 in SSW 6.9 mph 6.5 mph 72% 0 in 889.00 W/m2
12:59 87 °F 76.9 °F 29.93 in SSW 3.5 mph 0.6 mph 72% 0 in 912.00 W/m2
13:04 87.1 °F 77 °F 29.93 in South 4 mph 3.6 mph 72% 0 in 963.00 W/m2
13:09 87.3 °F 77.6 °F 29.93 in SSW 6.9 mph 4.6 mph 73% 0 in 923.00 W/m2
13:14 87.4 °F 77.3 °F 29.93 in SSW 5.8 mph 4.4 mph 72% 0 in 946.00 W/m2
13:19 87.6 °F 77.9 °F 29.93 in SSE 5.8 mph   73% 0 in 969.00 W/m2
13:24 87.7 °F 77.1 °F 29.92 in South 8.1 mph 0.4 mph 71% 0 in 954.00 W/m2
13:29 87.9 °F 76.9 °F 29.92 in SE 8.1 mph 6.2 mph 70% 0 in 954.00 W/m2
13:34 87.9 °F 76.9 °F 29.92 in SSW 7 mph 5.4 mph 70% 0 in 963.00 W/m2
13:39 88.2 °F 77.6 °F 29.92 in South 6.9 mph 4.6 mph 71% 0 in 983.00 W/m2
13:44 87.5 °F 75.6 °F 29.92 in SSE 6.9 mph 3.4 mph 68% 0 in 195.00 W/m2
13:49 87.3 °F 76.7 °F 29.91 in SSW 8.1 mph 1.6 mph 71% 0 in 951.00 W/m2
13:54 87.4 °F 76 °F 29.91 in SSE 4 mph 4.8 mph 69% 0 in 285.00 W/m2
13:59 86.9 °F 76.4 °F 29.91 in SSE 7 mph 0.6 mph 71% 0 in 281.00 W/m2
14:04 87.1 °F 77.8 °F 29.91 in South 3.5 mph 3 mph 74% 0 in 791.00 W/m2
14:09 87.7 °F 77.1 °F 29.91 in South 5.8 mph 0.8 mph 71% 0 in 984.00 W/m2
14:14 88.1 °F 77.5 °F 29.90 in SE 8.1 mph 4.5 mph 71% 0 in 911.00 W/m2
14:19 88.3 °F 76.4 °F 29.90 in South 6.9 mph 0.4 mph 68% 0 in 902.00 W/m2
14:24 88.5 °F 77 °F 29.90 in SSE 4.6 mph 2.2 mph 69% 0 in 912.00 W/m2
14:29 88.4 °F 76.5 °F 29.90 in South 9.2 mph 3.4 mph 68% 0 in 932.00 W/m2
14:34 87.5 °F 75.6 °F 29.90 in SSE 4.6 mph 3.8 mph 68% 0 in 234.00 W/m2
14:39 87.6 °F 76.2 °F 29.90 in SSW 9.2 mph 3.1 mph 69% 0 in 930.00 W/m2
14:44 88.7 °F 76.8 °F 29.89 in SSE 5.8 mph 4.5 mph 68% 0 in 925.00 W/m2
14:49 88.9 °F 77 °F 29.90 in SW 4.6 mph 0.8 mph 68% 0 in 916.00 W/m2
14:54 88.8 °F 76 °F 29.89 in SSW 7 mph 2.4 mph 66% 0 in 264.00 W/m2
14:59 88.8 °F 76.4 °F 29.89 in SW 11 mph 5.3 mph 67% 0 in 940.00 W/m2
15:04 89.4 °F 78.8 °F 29.89 in SSE 3.5 mph 2.8 mph 71% 0 in 860.00 W/m2
15:09 89.3 °F 76.9 °F 29.89 in SW 6.9 mph 2.9 mph 67% 0 in 816.00 W/m2
15:14 89.5 °F 76.2 °F 29.89 in SSW 9.2 mph 3.7 mph 65% 0 in 817.00 W/m2
15:19 89.9 °F 77.9 °F 29.88 in SSE 5.8 mph 3.9 mph 68% 0 in 851.00 W/m2
15:24 89.9 °F 77 °F 29.88 in SSW 5 mph 2.3 mph 66% 0 in 826.00 W/m2
15:29 90.5 °F 78.5 °F 29.88 in SSE 5.8 mph 4.2 mph 68% 0 in 830.00 W/m2
15:34 89.9 °F 77 °F 29.88 in SSW 5 mph 3.3 mph 66% 0 in 823.00 W/m2
15:39 89.8 °F 77.4 °F 29.88 in SSE 4.6 mph 1.1 mph 67% 0 in 807.00 W/m2
15:44 90 °F 77.1 °F 29.88 in South 5.8 mph 4.2 mph 66% 0 in 791.00 W/m2
15:49 90 °F 76.6 °F 29.88 in SSE 9.2 mph 5 mph 65% 0 in 791.00 W/m2
15:54 89.4 °F 77 °F 29.88 in South 8.1 mph 3.4 mph 67% 0 in 758.00 W/m2
15:59 89.2 °F 76.4 °F 29.88 in South 6.9 mph 4.4 mph 66% 0 in 243.00 W/m2
16:04 89.6 °F 78.5 °F 29.88 in SSE 8.1 mph 4.2 mph 70% 0 in 729.00 W/m2
16:09 89.9 °F 77 °F 29.88 in South 6.9 mph 4 mph 66% 0 in 744.00 W/m2
16:14 90.1 °F 76.7 °F 29.87 in SSW 4.6 mph 2.2 mph 65% 0 in 689.00 W/m2
16:19 90.5 °F 77.6 °F 29.87 in SSE 5.8 mph 3.9 mph 66% 0 in 696.00 W/m2
16:24 89.6 °F 77.6 °F 29.87 in SSE 6 mph 2.8 mph 68% 0 in 220.00 W/m2
16:29 89.3 °F 77.3 °F 29.87 in SSE 3.5 mph 3.3 mph 68% 0 in 698.00 W/m2
16:34 89.4 °F 76.5 °F 29.87 in SSE 9.2 mph 3.6 mph 66% 0 in 643.00 W/m2
16:39 89.3 °F 76.9 °F 29.88 in SSE 6.9 mph 4.3 mph 67% 0 in 174.00 W/m2
16:44 88.3 °F 76.8 °F 29.88 in SSW 3.5 mph 2.9 mph 69% 0 in 118.00 W/m2
16:49 87.6 °F 76.6 °F 29.88 in SSE 4.6 mph 1.7 mph 70% 0 in 364.00 W/m2
16:54 87.5 °F 76.1 °F 29.88 in South 5.8 mph 1.9 mph 69% 0 in 188.00 W/m2
16:59 87.2 °F 75.8 °F 29.89 in SSW 10 mph 6 mph 69% 0 in 47.00 W/m2
17:04 85.6 °F 74.3 °F 29.89 in NW 9 mph 3.5 mph 69% 0 in 44.00 W/m2
17:09 83.2 °F 73.2 °F 29.89 in NW 11.5 mph 5.4 mph 72% 0 in 30.00 W/m2
17:14 81.9 °F 73.2 °F 29.89 in WNW 6.9 mph 3.5 mph 75% 0 in 39.00 W/m2
17:19 81.4 °F 73.5 °F 29.89 in WNW 7 mph 4.5 mph 77% 0 in 47.00 W/m2
17:24 81.1 °F 73.6 °F 29.89 in WNW 6.9 mph 3.1 mph 78% 0 in 65.00 W/m2
17:29 80.7 °F 74 °F 29.89 in West 5.8 mph 2.5 mph 80% 0 in 97.00 W/m2
17:34 80.5 °F 73.8 °F 29.89 in West 4.6 mph 2.3 mph 80% 0 in 95.00 W/m2
17:39 80.5 °F 73.8 °F 29.89 in WNW 4.6 mph 3.2 mph 80% 0 in 90.00 W/m2
17:44 80.7 °F 74.3 °F 29.89 in West 2.3 mph 0.5 mph 81% 0 in 107.00 W/m2
17:49 80.9 °F 73.8 °F 29.89 in West 5.8 mph 3.4 mph 79% 0 in 100.00 W/m2
17:54 81.1 °F 74 °F 29.89 in NW 2 mph 1.4 mph 79% 0 in 100.00 W/m2
17:59 81.3 °F 72.6 °F 29.89 in WNW 4.6 mph 2.6 mph 75% 0 in 107.00 W/m2
18:04 81.5 °F 72.4 °F 29.89 in WNW 4.6 mph 2.2 mph 74% 0 in 104.00 W/m2
18:09 81.7 °F 73 °F 29.89 in WNW 3.5 mph 1 mph 75% 0 in 107.00 W/m2
18:14 81.7 °F 73.4 °F 29.89 in WNW 4.6 mph 2.4 mph 76% 0 in 105.00 W/m2
18:19 81.7 °F 73.4 °F 29.89 in NW 3.5 mph 1.4 mph 76% 0 in 100.00 W/m2
18:24 81.8 °F 73.5 °F 29.90 in WSW 3.5 mph 2.3 mph 76% 0 in 95.00 W/m2
18:29 81.9 °F 73.2 °F 29.90 in WSW 7 mph 4.7 mph 75% 0 in 100.00 W/m2
18:34 81.9 °F 72.8 °F 29.90 in West 9.2 mph 4.5 mph 74% 0 in 104.00 W/m2
18:39 81.7 °F 73 °F 29.90 in WSW 9.2 mph 6.1 mph 75% 0 in 98.00 W/m2
18:44 81.3 °F 73 °F 29.90 in WSW 9.2 mph 5.1 mph 76% 0 in 88.00 W/m2
18:49 81.1 °F 73.2 °F 29.91 in WSW 10.4 mph 4.1 mph 77% 0 in 81.00 W/m2
18:54 80.8 °F 73.3 °F 29.90 in SW 8.1 mph 4.3 mph 78% 0 in 70.00 W/m2
18:59 80.4 °F 73.7 °F 29.91 in SSW 5.8 mph 5.8 mph 80% 0 in 62.00 W/m2
19:04 79.7 °F 72.2 °F 29.91 in SW 11.5 mph 6.3 mph 78% 0 in 53.00 W/m2
19:09 79 °F 71.9 °F 29.92 in SSW 9.2 mph 4.9 mph 79% 0 in 49.00 W/m2
19:14 78.3 °F 72 °F 29.92 in SSE 9.2 mph 5.2 mph 81% 0 in 44.00 W/m2
19:19 77.3 °F 71.7 °F 29.92 in South 6.9 mph 3.5 mph 83% 0 in 40.00 W/m2
19:24 76.7 °F 71.8 °F 29.92 in South 9.2 mph 3.3 mph 85% 0 in 35.00 W/m2
19:29 76.4 °F 71.9 °F 29.93 in SSE 6 mph 5.4 mph 86% 0 in 30.00 W/m2
19:34 76.1 °F 71.9 °F 29.93 in SE 6.9 mph 5.7 mph 87% 0 in 26.00 W/m2
19:39 75.9 °F 72.1 °F 29.92 in South 4.6 mph 2.9 mph 88% 0 in 21.00 W/m2
19:44 75.8 °F 72.3 °F 29.92 in SSE 4 mph 2.9 mph 89% 0 in 19.00 W/m2
19:49 75.7 °F 72.2 °F 29.92 in South 3.5 mph 0.6 mph 89% 0 in 19.00 W/m2
19:54 75.7 °F 72.6 °F 29.92 in SSE 3.5 mph 2.1 mph 90% 0 in 28.00 W/m2
19:59 75.6 °F 72.5 °F 29.92 in SSE 2.3 mph 0.8 mph 90% 0 in 35.00 W/m2
20:04 75.5 °F 72.7 °F 29.92 in SSE 3 mph 0.6 mph 91% 0 in 30.00 W/m2
20:09 75.3 °F 72.5 °F 29.91 in Calm     91% 0 in 25.00 W/m2
20:14 75 °F 72.5 °F 29.92 in Calm     92% 0.01 in 19.00 W/m2
20:19 74.7 °F 72.2 °F 29.93 in SSE 4.6 mph 2.7 mph 92% 0.02 in 16.00 W/m2
20:24 74.3 °F 71.8 °F 29.92 in SSE 3 mph 0.4 mph 92% 0.02 in 11.00 W/m2
20:29 74 °F 71.8 °F 29.92 in SE 1.2 mph   93% 0.02 in 0.00 W/m2
20:34 73.9 °F 71.7 °F 29.92 in Calm     93% 0.02 in 0.00 W/m2
20:39 73.8 °F 71.6 °F 29.92 in Calm     93% 0.03 in 0.00 W/m2
20:44 73.8 °F 72 °F 29.92 in Calm     94% 0.03 in 0.00 W/m2
20:49 73.9 °F 72.1 °F 29.92 in Calm     94% 0.03 in 0.00 W/m2
20:54 73.9 °F 72.1 °F 29.92 in Calm     94% 0.03 in 0.00 W/m2
20:59 73.9 °F 72.1 °F 29.92 in Calm     94% 0.03 in 0.00 W/m2
21:04 73.9 °F 72.1 °F 29.92 in Calm     94% 0.03 in 0.00 W/m2
21:09 73.9 °F 72.1 °F 29.92 in Calm     94% 0.03 in 0.00 W/m2
21:14 73.8 °F 72 °F 29.92 in Calm     94% 0.02 in 0.00 W/m2
21:19 73.7 °F 71.9 °F 29.92 in Calm     94% 0.01 in 0.00 W/m2
21:24 73.7 °F 71.9 °F 29.92 in Calm     94% 0.01 in 0.00 W/m2
21:29 73.8 °F 72 °F 29.93 in Calm     94% 0.01 in 0.00 W/m2
21:34 73.8 °F 72 °F 29.93 in Calm     94% 0.01 in 0.00 W/m2
21:39 73.8 °F 72 °F 29.93 in Calm     94% 0 in 0.00 W/m2
21:44 73.8 °F 72 °F 29.93 in Calm     94% 0 in 0.00 W/m2
21:49 73.7 °F 71.9 °F 29.94 in Calm     94% 0 in 0.00 W/m2
21:54 73.8 °F 72 °F 29.94 in Calm     94% 0 in 0.00 W/m2
21:59 73.9 °F 72.1 °F 29.94 in Calm     94% 0 in 0.00 W/m2
22:04 73.9 °F 72.1 °F 29.94 in Calm     94% 0 in 0.00 W/m2
22:09 73.8 °F 72 °F 29.94 in Calm     94% 0 in 0.00 W/m2
22:14 73.8 °F 72 °F 29.95 in Calm     94% 0 in 0.00 W/m2
22:19 73.9 °F 72.1 °F 29.94 in Calm     94% 0 in 0.00 W/m2
22:24 73.8 °F 72 °F 29.95 in Calm     94% 0 in 0.00 W/m2
22:29 73.8 °F 72 °F 29.95 in Calm     94% 0 in 0.00 W/m2
22:34 73.8 °F 72 °F 29.95 in Calm     94% 0 in 0.00 W/m2
22:39 73.7 °F 71.9 °F 29.95 in Calm     94% 0 in 0.00 W/m2
22:44 73.7 °F 71.9 °F 29.95 in Calm     94% 0 in 0.00 W/m2
22:49 73.7 °F 71.9 °F 29.96 in Calm     94% 0 in 0.00 W/m2
22:54 73.7 °F 71.9 °F 29.96 in Calm     94% 0 in 0.00 W/m2
22:59 73.7 °F 71.9 °F 29.96 in Calm     94% 0 in 0.00 W/m2
23:04 73.7 °F 71.9 °F 29.96 in Calm     94% 0 in 0.00 W/m2
23:09 73.7 °F 71.9 °F 29.96 in Calm     94% 0 in 0.00 W/m2
23:14 73.6 °F 71.8 °F 29.96 in Calm     94% 0 in 0.00 W/m2
23:19 73.5 °F 71.7 °F 29.96 in Calm     94% 0 in 0.00 W/m2
23:24 73.5 °F 71.7 °F 29.96 in Calm     94% 0 in 0.00 W/m2
23:29 73.4 °F 71.6 °F 29.96 in Calm     94% 0 in 0.00 W/m2
23:34 73.4 °F 71.6 °F 29.96 in Calm     94% 0 in 0.00 W/m2
23:39 73.4 °F 71.6 °F 29.96 in Calm     94% 0 in 0.00 W/m2
23:44 73.4 °F 71.6 °F 29.96 in Calm     94% 0 in 0.00 W/m2
23:49 73.4 °F 71.6 °F 29.96 in Calm     94% 0 in 0.00 W/m2
23:54 73.4 °F 71.6 °F 29.96 in Calm     94% 0 in 0.00 W/m2
23:59 73.3 °F 71.5 °F 29.96 in Calm     94% 0 in 0.00 W/m2
Bourbonnais, Illinois, USA
Compliments of Weather Underground - 4 mb